CheckWX is a tool to help pilots better visualize weather data.  It is not intended as a substitute for an official pre-flight weather briefing.

08:13:39 UTC

KJMS TAF
Jamestown Regional Airport
Jamestown, North Dakota, USA
KJMS 051140Z 0512/0612 18006KT P6SM VCSH SCT070 FM051500 17009KT P6SM SCT070 FM052200 24009KT P6SM VCTS SCT060CB BKN100 TEMPO 0523/0603 VRB20G35KT 4SM TSRA BKN060CB FM060500 28005KT P6SM BKN120

Jul-5@
12:00 UTC

Jul-5 @ 12:00 UTC

Jul-5@
15:00 UTC

Jul-5 @ 15:00 UTC

TAF KJMS 051140Z 0512/0612 18006KT P6SM VCSH SCT070

Expired

Wind
  • 180° at 6 KTS
Conditions
Area Showers
Cloud Levels
  • Scattered at 7,000' AGL

Jul-5@
15:00 UTC

Jul-5 @ 15:00 UTC

Jul-5@
22:00 UTC

Jul-5 @ 22:00 UTC

FM051500 17009KT P6SM SCT070

Expired

Wind
  • 170° at 9 KTS
Cloud Levels
  • Scattered at 7,000' AGL

Jul-5@
22:00 UTC

Jul-5 @ 22:00 UTC

Jul-6@
05:00 UTC

Jul-6 @ 05:00 UTC

FM052200 24009KT P6SM VCTS SCT060CB BKN100

Expired

Wind
  • 240° at 9 KTS
Conditions
Area Thunderstorm
Cloud Levels
  • Scattered at 6,000' AGL
  • Broken at 10,000' AGL

Jul-5@
23:00 UTC

Jul-5 @ 23:00 UTC

Jul-6@
03:00 UTC

Jul-6 @ 03:00 UTC

TEMPO 0523/0603 VRB20G35KT 4SM TSRA BKN060CB

Expired

Wind
  • Variable at 20 KTS
  • {Gusting to 35 KTS
Conditions
Thunderstorm, Rain
Cloud Levels
  • Broken at 6,000' AGL

Jul-6@
05:00 UTC

Jul-6 @ 05:00 UTC

Jul-6@
12:00 UTC

Jul-6 @ 12:00 UTC

FM060500 28005KT P6SM BKN120

From

From Standard forecast or significant change

Wind
  • 280° at 5 KTS
Cloud Levels
  • Broken at 12,000' AGL